sensor_id;sensor_type;location;lat;lon;timestamp;P1;durP1;ratioP1;P2;durP2;ratioP2
54193;SDS011;40102;50.906;6.972;2023-01-19T00:01:43;10.13;;;4.03;;
54193;SDS011;40102;50.906;6.972;2023-01-19T00:04:08;9.80;;;4.47;;
54193;SDS011;40102;50.906;6.972;2023-01-19T00:06:34;9.00;;;4.18;;
54193;SDS011;40102;50.906;6.972;2023-01-19T00:09:02;10.90;;;4.50;;
54193;SDS011;40102;50.906;6.972;2023-01-19T00:11:27;10.68;;;4.68;;
54193;SDS011;40102;50.906;6.972;2023-01-19T00:13:53;9.88;;;5.05;;
54193;SDS011;40102;50.906;6.972;2023-01-19T00:16:19;19.90;;;4.97;;
54193;SDS011;40102;50.906;6.972;2023-01-19T00:18:47;8.15;;;4.47;;
54193;SDS011;40102;50.906;6.972;2023-01-19T00:21:14;7.90;;;4.80;;
54193;SDS011;40102;50.906;6.972;2023-01-19T00:23:40;11.02;;;4.55;;
54193;SDS011;40102;50.906;6.972;2023-01-19T00:26:06;8.75;;;4.70;;
54193;SDS011;40102;50.906;6.972;2023-01-19T00:28:32;7.90;;;4.18;;
54193;SDS011;40102;50.906;6.972;2023-01-19T00:30:59;8.68;;;4.72;;
54193;SDS011;40102;50.906;6.972;2023-01-19T00:33:24;8.63;;;4.25;;
54193;SDS011;40102;50.906;6.972;2023-01-19T00:35:50;9.80;;;4.75;;
54193;SDS011;40102;50.906;6.972;2023-01-19T00:38:19;7.97;;;4.10;;
54193;SDS011;40102;50.906;6.972;2023-01-19T00:40:44;9.95;;;4.38;;
54193;SDS011;40102;50.906;6.972;2023-01-19T00:43:09;7.45;;;4.45;;
54193;SDS011;40102;50.906;6.972;2023-01-19T00:45:35;10.55;;;4.90;;
54193;SDS011;40102;50.906;6.972;2023-01-19T00:48:03;7.93;;;4.63;;
54193;SDS011;40102;50.906;6.972;2023-01-19T00:50:29;8.05;;;4.22;;
54193;SDS011;40102;50.906;6.972;2023-01-19T00:52:56;7.93;;;3.83;;
54193;SDS011;40102;50.906;6.972;2023-01-19T00:55:24;10.23;;;4.40;;
54193;SDS011;40102;50.906;6.972;2023-01-19T00:57:51;8.23;;;4.53;;
54193;SDS011;40102;50.906;6.972;2023-01-19T01:00:17;8.65;;;4.30;;
54193;SDS011;40102;50.906;6.972;2023-01-19T01:02:44;8.93;;;4.40;;
54193;SDS011;40102;50.906;6.972;2023-01-19T01:05:10;8.95;;;4.20;;
54193;SDS011;40102;50.906;6.972;2023-01-19T01:07:36;7.85;;;4.60;;
54193;SDS011;40102;50.906;6.972;2023-01-19T01:10:06;11.00;;;4.72;;
54193;SDS011;40102;50.906;6.972;2023-01-19T01:12:33;6.88;;;4.15;;
54193;SDS011;40102;50.906;6.972;2023-01-19T01:14:58;6.53;;;3.60;;
54193;SDS011;40102;50.906;6.972;2023-01-19T01:17:23;7.50;;;4.22;;
54193;SDS011;40102;50.906;6.972;2023-01-19T01:19:50;8.43;;;3.80;;
54193;SDS011;40102;50.906;6.972;2023-01-19T01:22:16;7.90;;;4.03;;
54193;SDS011;40102;50.906;6.972;2023-01-19T01:24:41;6.88;;;4.32;;
54193;SDS011;40102;50.906;6.972;2023-01-19T01:27:06;9.02;;;4.22;;
54193;SDS011;40102;50.906;6.972;2023-01-19T01:29:32;9.07;;;4.60;;
54193;SDS011;40102;50.906;6.972;2023-01-19T01:32:00;6.63;;;3.67;;
54193;SDS011;40102;50.906;6.972;2023-01-19T01:34:26;5.50;;;3.30;;
54193;SDS011;40102;50.906;6.972;2023-01-19T01:36:51;5.90;;;3.50;;
54193;SDS011;40102;50.906;6.972;2023-01-19T01:39:18;10.20;;;4.18;;
54193;SDS011;40102;50.906;6.972;2023-01-19T01:41:44;5.47;;;3.20;;
54193;SDS011;40102;50.906;6.972;2023-01-19T01:50:21;5.95;;;3.30;;
54193;SDS011;40102;50.906;6.972;2023-01-19T01:53:00;7.75;;;3.00;;
54193;SDS011;40102;50.906;6.972;2023-01-19T01:55:28;4.85;;;2.95;;
54193;SDS011;40102;50.906;6.972;2023-01-19T01:57:57;6.30;;;3.15;;
54193;SDS011;40102;50.906;6.972;2023-01-19T02:00:28;5.18;;;3.22;;
54193;SDS011;40102;50.906;6.972;2023-01-19T02:03:14;6.22;;;3.05;;
54193;SDS011;40102;50.906;6.972;2023-01-19T02:05:40;5.97;;;3.10;;
54193;SDS011;40102;50.906;6.972;2023-01-19T02:08:14;7.55;;;3.40;;
54193;SDS011;40102;50.906;6.972;2023-01-19T02:11:02;7.45;;;2.70;;
54193;SDS011;40102;50.906;6.972;2023-01-19T02:13:47;3.28;;;2.22;;
54193;SDS011;40102;50.906;6.972;2023-01-19T02:16:14;4.97;;;2.40;;
54193;SDS011;40102;50.906;6.972;2023-01-19T02:18:41;6.90;;;3.30;;
54193;SDS011;40102;50.906;6.972;2023-01-19T02:26:20;5.10;;;2.83;;
54193;SDS011;40102;50.906;6.972;2023-01-19T02:28:53;4.47;;;2.63;;
54193;SDS011;40102;50.906;6.972;2023-01-19T02:31:23;5.53;;;3.10;;
54193;SDS011;40102;50.906;6.972;2023-01-19T02:33:49;6.05;;;2.90;;
54193;SDS011;40102;50.906;6.972;2023-01-19T02:36:16;6.55;;;2.85;;
54193;SDS011;40102;50.906;6.972;2023-01-19T02:38:46;6.05;;;2.95;;
54193;SDS011;40102;50.906;6.972;2023-01-19T02:41:15;4.38;;;2.83;;
54193;SDS011;40102;50.906;6.972;2023-01-19T02:43:45;4.57;;;2.78;;
54193;SDS011;40102;50.906;6.972;2023-01-19T02:46:13;9.65;;;3.00;;
54193;SDS011;40102;50.906;6.972;2023-01-19T02:48:39;5.85;;;2.72;;
54193;SDS011;40102;50.906;6.972;2023-01-19T02:51:15;5.00;;;2.63;;
54193;SDS011;40102;50.906;6.972;2023-01-19T02:56:38;4.28;;;2.92;;
54193;SDS011;40102;50.906;6.972;2023-01-19T03:01:58;3.42;;;2.25;;
54193;SDS011;40102;50.906;6.972;2023-01-19T03:04:58;4.43;;;2.63;;
54193;SDS011;40102;50.906;6.972;2023-01-19T03:07:50;4.40;;;2.30;;
54193;SDS011;40102;50.906;6.972;2023-01-19T03:10:39;5.88;;;2.47;;
54193;SDS011;40102;50.906;6.972;2023-01-19T03:13:16;6.25;;;2.33;;
54193;SDS011;40102;50.906;6.972;2023-01-19T03:15:44;3.55;;;2.10;;
54193;SDS011;40102;50.906;6.972;2023-01-19T03:18:15;4.07;;;2.30;;
54193;SDS011;40102;50.906;6.972;2023-01-19T03:20:44;5.97;;;2.17;;
54193;SDS011;40102;50.906;6.972;2023-01-19T03:23:12;4.35;;;2.03;;
54193;SDS011;40102;50.906;6.972;2023-01-19T03:25:42;4.78;;;2.00;;
54193;SDS011;40102;50.906;6.972;2023-01-19T03:28:11;3.50;;;2.30;;
54193;SDS011;40102;50.906;6.972;2023-01-19T03:30:39;3.92;;;2.00;;
54193;SDS011;40102;50.906;6.972;2023-01-19T03:33:12;4.03;;;2.17;;
54193;SDS011;40102;50.906;6.972;2023-01-19T03:35:44;4.75;;;2.50;;
54193;SDS011;40102;50.906;6.972;2023-01-19T03:38:18;3.55;;;2.28;;
54193;SDS011;40102;50.906;6.972;2023-01-19T03:40:51;3.42;;;2.40;;
54193;SDS011;40102;50.906;6.972;2023-01-19T03:43:24;3.78;;;2.13;;
54193;SDS011;40102;50.906;6.972;2023-01-19T03:45:50;3.95;;;2.67;;
54193;SDS011;40102;50.906;6.972;2023-01-19T03:48:18;6.53;;;2.63;;
54193;SDS011;40102;50.906;6.972;2023-01-19T03:50:45;4.57;;;2.88;;
54193;SDS011;40102;50.906;6.972;2023-01-19T03:53:12;4.32;;;2.55;;
54193;SDS011;40102;50.906;6.972;2023-01-19T03:55:40;5.28;;;2.80;;
54193;SDS011;40102;50.906;6.972;2023-01-19T03:58:07;5.18;;;2.63;;
54193;SDS011;40102;50.906;6.972;2023-01-19T04:00:33;3.58;;;2.40;;
54193;SDS011;40102;50.906;6.972;2023-01-19T04:03:00;3.35;;;2.40;;
54193;SDS011;40102;50.906;6.972;2023-01-19T04:05:27;6.65;;;2.72;;
54193;SDS011;40102;50.906;6.972;2023-01-19T04:07:53;6.30;;;2.63;;
54193;SDS011;40102;50.906;6.972;2023-01-19T04:10:19;6.85;;;2.78;;
54193;SDS011;40102;50.906;6.972;2023-01-19T04:12:45;5.78;;;2.58;;
54193;SDS011;40102;50.906;6.972;2023-01-19T04:15:11;6.47;;;2.80;;
54193;SDS011;40102;50.906;6.972;2023-01-19T04:17:37;6.70;;;2.78;;
54193;SDS011;40102;50.906;6.972;2023-01-19T04:20:03;4.43;;;2.70;;
54193;SDS011;40102;50.906;6.972;2023-01-19T04:22:30;6.70;;;2.70;;
54193;SDS011;40102;50.906;6.972;2023-01-19T04:24:55;8.43;;;3.10;;
54193;SDS011;40102;50.906;6.972;2023-01-19T04:27:21;5.25;;;3.15;;
54193;SDS011;40102;50.906;6.972;2023-01-19T04:29:46;4.95;;;2.88;;
54193;SDS011;40102;50.906;6.972;2023-01-19T04:32:12;6.22;;;3.13;;
54193;SDS011;40102;50.906;6.972;2023-01-19T04:34:38;6.20;;;2.90;;
54193;SDS011;40102;50.906;6.972;2023-01-19T04:37:03;4.97;;;2.92;;
54193;SDS011;40102;50.906;6.972;2023-01-19T04:39:29;10.45;;;3.20;;
54193;SDS011;40102;50.906;6.972;2023-01-19T04:41:54;6.70;;;3.10;;
54193;SDS011;40102;50.906;6.972;2023-01-19T04:44:21;8.65;;;3.10;;
54193;SDS011;40102;50.906;6.972;2023-01-19T04:46:47;5.72;;;2.85;;
54193;SDS011;40102;50.906;6.972;2023-01-19T04:49:12;6.43;;;3.50;;
54193;SDS011;40102;50.906;6.972;2023-01-19T04:51:38;4.80;;;2.90;;
54193;SDS011;40102;50.906;6.972;2023-01-19T04:54:03;4.53;;;2.90;;
54193;SDS011;40102;50.906;6.972;2023-01-19T04:56:29;4.47;;;2.90;;
54193;SDS011;40102;50.906;6.972;2023-01-19T04:58:54;4.60;;;2.70;;
54193;SDS011;40102;50.906;6.972;2023-01-19T05:01:20;7.70;;;3.00;;
54193;SDS011;40102;50.906;6.972;2023-01-19T05:03:45;4.32;;;2.63;;
54193;SDS011;40102;50.906;6.972;2023-01-19T05:06:10;4.22;;;2.30;;
54193;SDS011;40102;50.906;6.972;2023-01-19T05:08:36;4.00;;;2.05;;
54193;SDS011;40102;50.906;6.972;2023-01-19T05:11:02;3.47;;;2.28;;
54193;SDS011;40102;50.906;6.972;2023-01-19T05:13:27;6.28;;;2.20;;
54193;SDS011;40102;50.906;6.972;2023-01-19T05:15:53;5.13;;;2.17;;
54193;SDS011;40102;50.906;6.972;2023-01-19T05:18:18;6.32;;;2.58;;
54193;SDS011;40102;50.906;6.972;2023-01-19T05:20:43;6.53;;;2.50;;
54193;SDS011;40102;50.906;6.972;2023-01-19T05:23:09;5.55;;;2.45;;
54193;SDS011;40102;50.906;6.972;2023-01-19T05:25:34;4.45;;;2.10;;
54193;SDS011;40102;50.906;6.972;2023-01-19T05:28:00;4.05;;;1.98;;
54193;SDS011;40102;50.906;6.972;2023-01-19T05:30:27;4.85;;;2.47;;
54193;SDS011;40102;50.906;6.972;2023-01-19T05:32:52;5.15;;;2.00;;
54193;SDS011;40102;50.906;6.972;2023-01-19T05:35:17;3.78;;;2.10;;
54193;SDS011;40102;50.906;6.972;2023-01-19T05:37:43;5.78;;;2.20;;
54193;SDS011;40102;50.906;6.972;2023-01-19T05:40:08;3.00;;;2.00;;
54193;SDS011;40102;50.906;6.972;2023-01-19T05:42:35;4.88;;;2.38;;
54193;SDS011;40102;50.906;6.972;2023-01-19T05:45:00;9.30;;;2.60;;
54193;SDS011;40102;50.906;6.972;2023-01-19T05:47:28;5.57;;;2.30;;
54193;SDS011;40102;50.906;6.972;2023-01-19T05:49:54;5.40;;;2.42;;
54193;SDS011;40102;50.906;6.972;2023-01-19T05:52:19;8.63;;;2.78;;
54193;SDS011;40102;50.906;6.972;2023-01-19T05:54:45;5.30;;;2.40;;
54193;SDS011;40102;50.906;6.972;2023-01-19T05:57:12;5.35;;;2.40;;
54193;SDS011;40102;50.906;6.972;2023-01-19T05:59:38;6.18;;;2.60;;
54193;SDS011;40102;50.906;6.972;2023-01-19T06:02:04;6.53;;;2.75;;
54193;SDS011;40102;50.906;6.972;2023-01-19T06:04:29;5.47;;;2.60;;
54193;SDS011;40102;50.906;6.972;2023-01-19T06:06:58;6.72;;;2.70;;
54193;SDS011;40102;50.906;6.972;2023-01-19T06:09:23;6.32;;;2.80;;
54193;SDS011;40102;50.906;6.972;2023-01-19T06:11:48;7.28;;;2.90;;
54193;SDS011;40102;50.906;6.972;2023-01-19T06:14:14;6.22;;;3.10;;
54193;SDS011;40102;50.906;6.972;2023-01-19T06:16:39;10.98;;;4.28;;
54193;SDS011;40102;50.906;6.972;2023-01-19T06:19:05;18.10;;;7.20;;
54193;SDS011;40102;50.906;6.972;2023-01-19T06:21:31;12.57;;;4.80;;
54193;SDS011;40102;50.906;6.972;2023-01-19T06:23:58;8.38;;;3.90;;
54193;SDS011;40102;50.906;6.972;2023-01-19T06:26:23;8.43;;;3.88;;
54193;SDS011;40102;50.906;6.972;2023-01-19T06:28:50;10.63;;;4.10;;
54193;SDS011;40102;50.906;6.972;2023-01-19T06:31:16;9.73;;;5.20;;
54193;SDS011;40102;50.906;6.972;2023-01-19T06:33:41;10.63;;;4.90;;
54193;SDS011;40102;50.906;6.972;2023-01-19T06:36:07;14.00;;;5.55;;
54193;SDS011;40102;50.906;6.972;2023-01-19T06:38:32;13.02;;;5.70;;
54193;SDS011;40102;50.906;6.972;2023-01-19T06:40:58;11.65;;;5.45;;
54193;SDS011;40102;50.906;6.972;2023-01-19T06:43:24;10.05;;;5.22;;
54193;SDS011;40102;50.906;6.972;2023-01-19T06:45:50;12.30;;;5.40;;
54193;SDS011;40102;50.906;6.972;2023-01-19T06:48:16;11.57;;;5.05;;
54193;SDS011;40102;50.906;6.972;2023-01-19T06:50:43;10.38;;;5.85;;
54193;SDS011;40102;50.906;6.972;2023-01-19T06:53:10;13.38;;;5.63;;
54193;SDS011;40102;50.906;6.972;2023-01-19T06:55:36;11.93;;;5.60;;
54193;SDS011;40102;50.906;6.972;2023-01-19T06:58:01;10.65;;;5.28;;
54193;SDS011;40102;50.906;6.972;2023-01-19T07:00:27;13.13;;;5.13;;
54193;SDS011;40102;50.906;6.972;2023-01-19T07:02:53;9.52;;;4.93;;
54193;SDS011;40102;50.906;6.972;2023-01-19T07:05:18;8.82;;;4.35;;
54193;SDS011;40102;50.906;6.972;2023-01-19T07:07:49;11.65;;;5.00;;
54193;SDS011;40102;50.906;6.972;2023-01-19T07:10:19;10.18;;;4.53;;
54193;SDS011;40102;50.906;6.972;2023-01-19T07:12:45;9.52;;;4.43;;
54193;SDS011;40102;50.906;6.972;2023-01-19T07:15:11;11.13;;;5.10;;
54193;SDS011;40102;50.906;6.972;2023-01-19T07:17:37;10.73;;;5.28;;
54193;SDS011;40102;50.906;6.972;2023-01-19T07:20:03;9.52;;;4.93;;
54193;SDS011;40102;50.906;6.972;2023-01-19T07:22:28;11.60;;;4.75;;
54193;SDS011;40102;50.906;6.972;2023-01-19T07:24:54;8.93;;;4.65;;
54193;SDS011;40102;50.906;6.972;2023-01-19T07:27:19;10.48;;;5.30;;
54193;SDS011;40102;50.906;6.972;2023-01-19T07:29:44;8.95;;;5.05;;
54193;SDS011;40102;50.906;6.972;2023-01-19T07:32:10;9.32;;;4.65;;
54193;SDS011;40102;50.906;6.972;2023-01-19T07:34:35;8.45;;;4.65;;
54193;SDS011;40102;50.906;6.972;2023-01-19T07:37:01;10.02;;;5.80;;
54193;SDS011;40102;50.906;6.972;2023-01-19T07:39:27;10.05;;;4.82;;
54193;SDS011;40102;50.906;6.972;2023-01-19T07:41:54;11.93;;;5.63;;
54193;SDS011;40102;50.906;6.972;2023-01-19T07:44:20;10.18;;;5.07;;
54193;SDS011;40102;50.906;6.972;2023-01-19T07:46:45;11.90;;;6.18;;
54193;SDS011;40102;50.906;6.972;2023-01-19T07:49:11;10.15;;;5.40;;
54193;SDS011;40102;50.906;6.972;2023-01-19T07:51:36;14.05;;;5.65;;
54193;SDS011;40102;50.906;6.972;2023-01-19T07:54:01;10.73;;;5.03;;
54193;SDS011;40102;50.906;6.972;2023-01-19T07:56:27;11.52;;;5.47;;
54193;SDS011;40102;50.906;6.972;2023-01-19T07:58:54;10.55;;;5.53;;
54193;SDS011;40102;50.906;6.972;2023-01-19T08:01:20;11.85;;;5.93;;
54193;SDS011;40102;50.906;6.972;2023-01-19T08:03:46;12.77;;;6.43;;
54193;SDS011;40102;50.906;6.972;2023-01-19T08:06:17;14.55;;;6.18;;
54193;SDS011;40102;50.906;6.972;2023-01-19T08:08:45;16.77;;;6.85;;
54193;SDS011;40102;50.906;6.972;2023-01-19T08:11:10;15.07;;;7.05;;
54193;SDS011;40102;50.906;6.972;2023-01-19T08:13:36;15.90;;;7.70;;
54193;SDS011;40102;50.906;6.972;2023-01-19T08:16:01;17.58;;;7.50;;
54193;SDS011;40102;50.906;6.972;2023-01-19T08:18:27;16.33;;;7.50;;
54193;SDS011;40102;50.906;6.972;2023-01-19T08:20:52;15.75;;;7.03;;
54193;SDS011;40102;50.906;6.972;2023-01-19T08:23:17;15.45;;;6.68;;
54193;SDS011;40102;50.906;6.972;2023-01-19T08:25:43;15.55;;;7.15;;
54193;SDS011;40102;50.906;6.972;2023-01-19T08:28:11;15.68;;;7.65;;
54193;SDS011;40102;50.906;6.972;2023-01-19T08:30:38;13.07;;;6.70;;
54193;SDS011;40102;50.906;6.972;2023-01-19T08:33:05;14.75;;;6.85;;
54193;SDS011;40102;50.906;6.972;2023-01-19T08:35:34;18.55;;;7.50;;
54193;SDS011;40102;50.906;6.972;2023-01-19T08:38:07;18.13;;;7.32;;
54193;SDS011;40102;50.906;6.972;2023-01-19T08:40:34;16.63;;;7.22;;
54193;SDS011;40102;50.906;6.972;2023-01-19T08:43:03;21.13;;;7.68;;
54193;SDS011;40102;50.906;6.972;2023-01-19T08:45:36;14.13;;;6.88;;
54193;SDS011;40102;50.906;6.972;2023-01-19T08:48:05;13.15;;;7.03;;
54193;SDS011;40102;50.906;6.972;2023-01-19T08:50:31;13.23;;;6.20;;
54193;SDS011;40102;50.906;6.972;2023-01-19T08:52:58;13.27;;;6.55;;
54193;SDS011;40102;50.906;6.972;2023-01-19T08:55:25;15.48;;;6.05;;
54193;SDS011;40102;50.906;6.972;2023-01-19T08:57:51;12.55;;;6.43;;
54193;SDS011;40102;50.906;6.972;2023-01-19T09:00:18;12.02;;;5.80;;
54193;SDS011;40102;50.906;6.972;2023-01-19T09:02:44;11.90;;;5.97;;
54193;SDS011;40102;50.906;6.972;2023-01-19T09:05:10;10.30;;;5.82;;
54193;SDS011;40102;50.906;6.972;2023-01-19T09:07:36;10.38;;;5.57;;
54193;SDS011;40102;50.906;6.972;2023-01-19T09:10:02;10.93;;;5.55;;
54193;SDS011;40102;50.906;6.972;2023-01-19T09:12:28;12.57;;;5.93;;
54193;SDS011;40102;50.906;6.972;2023-01-19T09:14:54;14.02;;;6.30;;
54193;SDS011;40102;50.906;6.972;2023-01-19T09:17:19;13.63;;;5.82;;
54193;SDS011;40102;50.906;6.972;2023-01-19T09:19:45;12.18;;;6.13;;
54193;SDS011;40102;50.906;6.972;2023-01-19T09:22:13;13.52;;;6.15;;
54193;SDS011;40102;50.906;6.972;2023-01-19T09:24:39;10.68;;;5.40;;
54193;SDS011;40102;50.906;6.972;2023-01-19T09:27:04;14.38;;;6.55;;
54193;SDS011;40102;50.906;6.972;2023-01-19T09:29:30;16.23;;;6.78;;
54193;SDS011;40102;50.906;6.972;2023-01-19T09:31:55;12.63;;;6.45;;
54193;SDS011;40102;50.906;6.972;2023-01-19T09:34:21;17.02;;;6.72;;
54193;SDS011;40102;50.906;6.972;2023-01-19T09:36:49;12.88;;;6.70;;
54193;SDS011;40102;50.906;6.972;2023-01-19T09:39:15;17.65;;;8.27;;
54193;SDS011;40102;50.906;6.972;2023-01-19T09:41:40;17.85;;;8.45;;
54193;SDS011;40102;50.906;6.972;2023-01-19T09:44:13;18.38;;;8.15;;
54193;SDS011;40102;50.906;6.972;2023-01-19T09:46:43;16.85;;;7.57;;
54193;SDS011;40102;50.906;6.972;2023-01-19T09:49:13;13.07;;;6.53;;
54193;SDS011;40102;50.906;6.972;2023-01-19T09:51:42;15.57;;;6.68;;
54193;SDS011;40102;50.906;6.972;2023-01-19T09:56:52;12.77;;;6.40;;
54193;SDS011;40102;50.906;6.972;2023-01-19T09:59:25;14.05;;;6.90;;
54193;SDS011;40102;50.906;6.972;2023-01-19T10:07:10;16.10;;;6.90;;
54193;SDS011;40102;50.906;6.972;2023-01-19T10:09:56;15.82;;;7.18;;
54193;SDS011;40102;50.906;6.972;2023-01-19T10:15:27;20.33;;;7.90;;
54193;SDS011;40102;50.906;6.972;2023-01-19T10:20:45;20.85;;;8.23;;
54193;SDS011;40102;50.906;6.972;2023-01-19T10:23:24;16.52;;;7.53;;
54193;SDS011;40102;50.906;6.972;2023-01-19T10:26:12;19.30;;;8.38;;
54193;SDS011;40102;50.906;6.972;2023-01-19T10:28:41;15.88;;;8.10;;
54193;SDS011;40102;50.906;6.972;2023-01-19T10:31:08;17.30;;;7.78;;
54193;SDS011;40102;50.906;6.972;2023-01-19T10:33:35;23.95;;;8.30;;
54193;SDS011;40102;50.906;6.972;2023-01-19T10:36:09;19.15;;;8.10;;
54193;SDS011;40102;50.906;6.972;2023-01-19T10:38:41;19.48;;;8.27;;
54193;SDS011;40102;50.906;6.972;2023-01-19T10:41:09;21.75;;;8.10;;
54193;SDS011;40102;50.906;6.972;2023-01-19T10:43:40;22.23;;;9.25;;
54193;SDS011;40102;50.906;6.972;2023-01-19T10:46:21;18.42;;;7.68;;
54193;SDS011;40102;50.906;6.972;2023-01-19T10:49:19;24.20;;;8.73;;
54193;SDS011;40102;50.906;6.972;2023-01-19T10:51:47;17.85;;;7.53;;
54193;SDS011;40102;50.906;6.972;2023-01-19T10:54:13;19.13;;;8.98;;
54193;SDS011;40102;50.906;6.972;2023-01-19T10:56:39;15.77;;;7.30;;
54193;SDS011;40102;50.906;6.972;2023-01-19T10:59:05;18.95;;;7.43;;
54193;SDS011;40102;50.906;6.972;2023-01-19T11:04:44;30.98;;;9.63;;
54193;SDS011;40102;50.906;6.972;2023-01-19T11:09:44;22.15;;;8.63;;
54193;SDS011;40102;50.906;6.972;2023-01-19T11:12:17;21.40;;;7.75;;
54193;SDS011;40102;50.906;6.972;2023-01-19T11:14:47;17.55;;;7.72;;
54193;SDS011;40102;50.906;6.972;2023-01-19T11:17:18;18.52;;;8.25;;
54193;SDS011;40102;50.906;6.972;2023-01-19T11:19:58;20.55;;;8.13;;
54193;SDS011;40102;50.906;6.972;2023-01-19T11:22:35;19.58;;;8.00;;
54193;SDS011;40102;50.906;6.972;2023-01-19T11:25:01;21.55;;;7.78;;
54193;SDS011;40102;50.906;6.972;2023-01-19T11:27:33;20.17;;;7.28;;
54193;SDS011;40102;50.906;6.972;2023-01-19T11:30:17;17.25;;;7.97;;
54193;SDS011;40102;50.906;6.972;2023-01-19T11:32:46;16.83;;;6.97;;
54193;SDS011;40102;50.906;6.972;2023-01-19T11:35:33;19.90;;;8.02;;
54193;SDS011;40102;50.906;6.972;2023-01-19T11:38:19;19.63;;;7.75;;
54193;SDS011;40102;50.906;6.972;2023-01-19T11:40:53;17.38;;;7.30;;
54193;SDS011;40102;50.906;6.972;2023-01-19T11:43:22;24.08;;;8.10;;
54193;SDS011;40102;50.906;6.972;2023-01-19T11:45:49;19.70;;;7.05;;
54193;SDS011;40102;50.906;6.972;2023-01-19T11:48:58;16.67;;;7.38;;
54193;SDS011;40102;50.906;6.972;2023-01-19T11:51:09;19.27;;;8.00;;
54193;SDS011;40102;50.906;6.972;2023-01-19T11:53:39;24.45;;;8.05;;
54193;SDS011;40102;50.906;6.972;2023-01-19T11:56:11;22.83;;;8.50;;
54193;SDS011;40102;50.906;6.972;2023-01-19T11:58:43;17.00;;;7.63;;
54193;SDS011;40102;50.906;6.972;2023-01-19T12:03:57;16.75;;;7.55;;
54193;SDS011;40102;50.906;6.972;2023-01-19T12:06:30;20.88;;;8.57;;
54193;SDS011;40102;50.906;6.972;2023-01-19T12:09:00;17.47;;;7.63;;
54193;SDS011;40102;50.906;6.972;2023-01-19T12:11:39;16.73;;;6.97;;
54193;SDS011;40102;50.906;6.972;2023-01-19T12:14:13;18.98;;;7.35;;
54193;SDS011;40102;50.906;6.972;2023-01-19T12:16:44;21.23;;;7.55;;
54193;SDS011;40102;50.906;6.972;2023-01-19T12:19:14;18.70;;;6.50;;
54193;SDS011;40102;50.906;6.972;2023-01-19T12:21:43;20.98;;;7.57;;
54193;SDS011;40102;50.906;6.972;2023-01-19T12:24:15;20.90;;;7.45;;
54193;SDS011;40102;50.906;6.972;2023-01-19T12:26:51;18.02;;;7.20;;
54193;SDS011;40102;50.906;6.972;2023-01-19T12:29:20;17.70;;;7.20;;
54193;SDS011;40102;50.906;6.972;2023-01-19T12:32:15;19.90;;;7.43;;
54193;SDS011;40102;50.906;6.972;2023-01-19T12:37:52;18.15;;;7.10;;
54193;SDS011;40102;50.906;6.972;2023-01-19T12:39:58;23.65;;;7.72;;
54193;SDS011;40102;50.906;6.972;2023-01-19T12:42:27;16.88;;;7.18;;
54193;SDS011;40102;50.906;6.972;2023-01-19T12:45:06;16.42;;;7.22;;
54193;SDS011;40102;50.906;6.972;2023-01-19T12:47:37;18.05;;;7.10;;
54193;SDS011;40102;50.906;6.972;2023-01-19T12:50:04;20.80;;;8.38;;
54193;SDS011;40102;50.906;6.972;2023-01-19T12:52:40;19.33;;;6.90;;
54193;SDS011;40102;50.906;6.972;2023-01-19T12:55:16;19.08;;;7.75;;
54193;SDS011;40102;50.906;6.972;2023-01-19T12:57:48;19.05;;;7.20;;
54193;SDS011;40102;50.906;6.972;2023-01-19T13:02:46;16.20;;;6.40;;
54193;SDS011;40102;50.906;6.972;2023-01-19T13:18:52;14.00;;;6.78;;
54193;SDS011;40102;50.906;6.972;2023-01-19T13:29:07;16.23;;;5.90;;
54193;SDS011;40102;50.906;6.972;2023-01-19T13:31:38;23.08;;;6.90;;
54193;SDS011;40102;50.906;6.972;2023-01-19T13:34:28;18.40;;;6.65;;
54193;SDS011;40102;50.906;6.972;2023-01-19T13:37:00;17.95;;;7.75;;
54193;SDS011;40102;50.906;6.972;2023-01-19T13:44:48;15.38;;;7.22;;
54193;SDS011;40102;50.906;6.972;2023-01-19T13:47:22;16.85;;;7.03;;
54193;SDS011;40102;50.906;6.972;2023-01-19T13:49:56;16.65;;;6.28;;
54193;SDS011;40102;50.906;6.972;2023-01-19T13:52:26;17.17;;;6.32;;
54193;SDS011;40102;50.906;6.972;2023-01-19T13:54:53;15.95;;;6.13;;
54193;SDS011;40102;50.906;6.972;2023-01-19T14:02:49;14.32;;;6.32;;
54193;SDS011;40102;50.906;6.972;2023-01-19T14:05:21;18.00;;;6.85;;
54193;SDS011;40102;50.906;6.972;2023-01-19T14:07:58;14.38;;;6.10;;
54193;SDS011;40102;50.906;6.972;2023-01-19T14:10:26;15.23;;;6.88;;
54193;SDS011;40102;50.906;6.972;2023-01-19T14:12:58;12.40;;;6.43;;
54193;SDS011;40102;50.906;6.972;2023-01-19T14:15:25;15.23;;;7.15;;
54193;SDS011;40102;50.906;6.972;2023-01-19T14:26:41;14.52;;;6.25;;
54193;SDS011;40102;50.906;6.972;2023-01-19T14:34:38;21.08;;;5.88;;
54193;SDS011;40102;50.906;6.972;2023-01-19T14:37:10;14.52;;;5.50;;
54193;SDS011;40102;50.906;6.972;2023-01-19T14:39:42;12.13;;;5.65;;
54193;SDS011;40102;50.906;6.972;2023-01-19T14:42:22;12.80;;;5.95;;
54193;SDS011;40102;50.906;6.972;2023-01-19T14:44:55;11.02;;;5.95;;
54193;SDS011;40102;50.906;6.972;2023-01-19T14:52:22;14.77;;;5.53;;
54193;SDS011;40102;50.906;6.972;2023-01-19T14:54:52;10.77;;;5.32;;
54193;SDS011;40102;50.906;6.972;2023-01-19T14:57:18;12.10;;;6.05;;
54193;SDS011;40102;50.906;6.972;2023-01-19T14:59:44;14.13;;;5.97;;
54193;SDS011;40102;50.906;6.972;2023-01-19T15:02:13;16.52;;;6.68;;
54193;SDS011;40102;50.906;6.972;2023-01-19T15:04:39;10.82;;;5.28;;
54193;SDS011;40102;50.906;6.972;2023-01-19T15:07:04;12.45;;;6.00;;
54193;SDS011;40102;50.906;6.972;2023-01-19T15:09:30;8.27;;;4.70;;
54193;SDS011;40102;50.906;6.972;2023-01-19T15:11:56;11.32;;;5.18;;
54193;SDS011;40102;50.906;6.972;2023-01-19T15:14:22;10.45;;;5.32;;
54193;SDS011;40102;50.906;6.972;2023-01-19T15:16:48;9.77;;;5.15;;
54193;SDS011;40102;50.906;6.972;2023-01-19T15:19:14;10.63;;;5.28;;
54193;SDS011;40102;50.906;6.972;2023-01-19T15:21:41;8.35;;;4.65;;
54193;SDS011;40102;50.906;6.972;2023-01-19T15:24:09;9.65;;;4.82;;
54193;SDS011;40102;50.906;6.972;2023-01-19T15:26:35;9.32;;;4.82;;
54193;SDS011;40102;50.906;6.972;2023-01-19T15:29:09;8.13;;;4.20;;
54193;SDS011;40102;50.906;6.972;2023-01-19T15:31:47;10.73;;;4.78;;
54193;SDS011;40102;50.906;6.972;2023-01-19T15:34:13;9.57;;;4.45;;
54193;SDS011;40102;50.906;6.972;2023-01-19T15:36:38;8.98;;;4.75;;
54193;SDS011;40102;50.906;6.972;2023-01-19T15:39:04;9.35;;;4.03;;
54193;SDS011;40102;50.906;6.972;2023-01-19T15:41:30;9.82;;;4.60;;
54193;SDS011;40102;50.906;6.972;2023-01-19T15:43:56;12.68;;;4.70;;
54193;SDS011;40102;50.906;6.972;2023-01-19T15:46:22;8.93;;;4.47;;
54193;SDS011;40102;50.906;6.972;2023-01-19T15:48:49;8.27;;;4.40;;
54193;SDS011;40102;50.906;6.972;2023-01-19T15:51:17;7.97;;;4.05;;
54193;SDS011;40102;50.906;6.972;2023-01-19T15:53:44;10.55;;;4.20;;
54193;SDS011;40102;50.906;6.972;2023-01-19T15:56:16;7.95;;;4.05;;
54193;SDS011;40102;50.906;6.972;2023-01-19T15:58:49;8.73;;;4.10;;
54193;SDS011;40102;50.906;6.972;2023-01-19T16:01:19;9.13;;;3.97;;
54193;SDS011;40102;50.906;6.972;2023-01-19T16:03:47;7.45;;;4.32;;
54193;SDS011;40102;50.906;6.972;2023-01-19T16:06:13;7.43;;;4.45;;
54193;SDS011;40102;50.906;6.972;2023-01-19T16:08:40;8.80;;;4.28;;
54193;SDS011;40102;50.906;6.972;2023-01-19T16:11:07;9.82;;;4.30;;
54193;SDS011;40102;50.906;6.972;2023-01-19T16:13:35;9.13;;;4.18;;
54193;SDS011;40102;50.906;6.972;2023-01-19T16:16:02;7.53;;;4.30;;
54193;SDS011;40102;50.906;6.972;2023-01-19T16:18:28;7.82;;;4.05;;
54193;SDS011;40102;50.906;6.972;2023-01-19T16:20:54;7.72;;;3.70;;
54193;SDS011;40102;50.906;6.972;2023-01-19T16:23:19;12.07;;;4.65;;
54193;SDS011;40102;50.906;6.972;2023-01-19T16:25:53;9.35;;;4.00;;